Time;durP1;ratioP1;P1;durP2;ratioP2;P2;SDS_P1;SDS_P2;PMS_P1;PMS_P2;Temp;Humidity;BMP_temperature;BMP_pressure;BME280_temperature;BME280_humidity;BME280_pressure;Samples;Min_cycle;Max_cycle;Signal;HPM_P1;HPM_P2
2023/11/06 00:02:19;;;;;;;3.05;2.70;;;18.80;58.30;;;;;;6162079;23;20139;-87
2023/11/06 00:04:49;;;;;;;2.83;2.60;;;18.80;58.30;;;;;;6111775;23;20146;-85
2023/11/06 00:07:16;;;;;;;3.22;2.40;;;18.80;58.30;;;;;;6088370;23;20185;-87
2023/11/06 00:09:41;;;;;;;2.95;2.67;;;18.80;58.40;;;;;;6187494;23;20135;-85
2023/11/06 00:12:11;;;;;;;3.80;2.53;;;18.80;58.40;;;;;;6161313;23;20517;-86
2023/11/06 00:14:43;;;;;;;3.13;2.70;;;18.80;58.40;;;;;;6161237;23;20185;-86
2023/11/06 00:17:09;;;;;;;3.03;2.83;;;18.80;58.40;;;;;;6137539;23;20150;-87
2023/11/06 00:19:35;;;;;;;2.60;2.40;;;18.70;58.50;;;;;;6161097;23;20131;-85
2023/11/06 00:22:01;;;;;;;2.70;2.50;;;18.70;58.50;;;;;;6161593;23;20135;-87
2023/11/06 00:24:29;;;;;;;2.67;2.38;;;18.70;58.40;;;;;;6161056;23;20150;-87
2023/11/06 00:26:58;;;;;;;2.60;2.40;;;18.70;58.50;;;;;;6161717;23;20571;-86
2023/11/06 00:29:24;;;;;;;3.95;2.42;;;18.70;58.50;;;;;;6072238;23;20212;-85
2023/11/06 00:31:50;;;;;;;3.08;2.65;;;18.70;58.50;;;;;;6096912;23;20156;-87
2023/11/06 00:34:16;;;;;;;3.08;2.78;;;18.70;58.60;;;;;;6096385;23;20172;-86
2023/11/06 00:36:44;;;;;;;3.08;2.78;;;18.70;58.60;;;;;;6048245;23;20251;-85
2023/11/06 00:39:13;;;;;;;3.70;2.67;;;18.70;58.60;;;;;;6048433;23;20161;-85
2023/11/06 00:41:40;;;;;;;2.78;2.58;;;18.70;58.60;;;;;;6048277;23;20633;-86
2023/11/06 00:44:10;;;;;;;2.80;2.50;;;18.70;58.50;;;;;;6073011;23;20161;-87
2023/11/06 00:46:45;;;;;;;3.67;2.60;;;18.70;58.60;;;;;;6024825;23;20524;-85
2023/11/06 00:49:11;;;;;;;3.00;2.70;;;18.70;58.60;;;;;;6047844;23;20211;-87
2023/11/06 00:51:38;;;;;;;2.72;2.53;;;18.70;58.60;;;;;;6072261;23;20484;-87
2023/11/06 00:54:04;;;;;;;2.80;2.60;;;18.60;58.60;;;;;;6047797;23;20643;-84
2023/11/06 00:56:30;;;;;;;3.65;2.85;;;18.70;58.70;;;;;;6072169;23;20157;-86
2023/11/06 00:58:58;;;;;;;2.97;2.78;;;18.70;58.60;;;;;;6048413;23;20175;-87
2023/11/06 01:01:28;;;;;;;2.80;2.53;;;18.70;58.70;;;;;;6155628;23;20147;-87
2023/11/06 01:03:56;;;;;;;2.75;2.55;;;18.70;58.70;;;;;;6135914;23;20161;-86
2023/11/06 01:06:31;;;;;;;2.55;2.35;;;18.70;58.70;;;;;;6137392;23;20157;-87
2023/11/06 01:08:57;;;;;;;2.70;2.50;;;18.60;58.80;;;;;;6161949;23;20185;-87
2023/11/06 01:11:23;;;;;;;2.97;2.67;;;18.60;58.70;;;;;;6155064;23;20163;-88
2023/11/06 01:13:49;;;;;;;2.78;2.58;;;18.60;58.70;;;;;;6130041;23;20274;-86
2023/11/06 01:16:17;;;;;;;2.90;2.70;;;18.60;58.70;;;;;;6105456;23;20190;-85
2023/11/06 01:18:47;;;;;;;2.90;2.70;;;18.60;58.70;;;;;;6105868;23;20179;-86
2023/11/06 01:21:17;;;;;;;2.78;2.58;;;18.60;58.80;;;;;;6125264;23;20148;-85
2023/11/06 01:23:46;;;;;;;3.42;3.10;;;18.60;58.70;;;;;;6052822;23;20156;-85
2023/11/06 01:26:15;;;;;;;2.90;2.70;;;18.60;58.80;;;;;;6077025;23;20226;-88
2023/11/06 01:28:41;;;;;;;3.08;2.60;;;18.60;58.90;;;;;;6077204;23;20611;-87
2023/11/06 01:31:09;;;;;;;3.00;2.70;;;18.60;58.90;;;;;;6100880;23;20162;-85
2023/11/06 01:33:37;;;;;;;3.00;2.70;;;18.60;58.80;;;;;;6100964;23;20203;-85
2023/11/06 01:36:08;;;;;;;3.03;2.72;;;18.60;58.90;;;;;;6095265;23;20672;-88
2023/11/06 01:38:35;;;;;;;2.92;2.50;;;18.60;59.00;;;;;;6072069;23;20156;-87
2023/11/06 01:41:00;;;;;;;2.90;2.60;;;18.60;58.90;;;;;;6095928;23;20160;-87
2023/11/06 01:43:35;;;;;;;3.05;2.78;;;18.60;58.90;;;;;;6095997;23;20156;-88
2023/11/06 01:46:01;;;;;;;2.80;2.60;;;18.60;58.90;;;;;;6093694;23;20159;-88
2023/11/06 01:48:31;;;;;;;2.70;2.50;;;18.60;58.90;;;;;;6100667;23;20607;-86
2023/11/06 01:50:59;;;;;;;3.05;2.70;;;18.60;59.00;;;;;;6052391;23;20218;-86
2023/11/06 01:53:31;;;;;;;3.05;2.75;;;18.60;58.90;;;;;;6100906;23;20575;-86
2023/11/06 01:55:57;;;;;;;2.95;2.63;;;18.60;59.00;;;;;;6052711;23;20602;-86
2023/11/06 01:58:23;;;;;;;4.43;2.63;;;18.60;59.00;;;;;;6124862;23;20152;-86
2023/11/06 02:00:53;;;;;;;3.03;2.83;;;18.60;59.00;;;;;;6100658;23;20239;-86
2023/11/06 02:03:27;;;;;;;3.08;2.88;;;18.60;59.10;;;;;;6028639;23;20481;-87
2023/11/06 02:05:59;;;;;;;3.00;2.70;;;18.60;59.10;;;;;;6051681;23;20555;-86
2023/11/06 02:08:31;;;;;;;3.13;2.83;;;18.60;59.10;;;;;;6097254;23;20149;-87
2023/11/06 02:11:07;;;;;;;2.90;2.67;;;18.60;59.10;;;;;;6082194;23;20487;-85
2023/11/06 02:13:40;;;;;;;3.03;2.72;;;18.50;59.10;;;;;;6105854;23;20209;-87
2023/11/06 02:16:09;;;;;;;4.15;3.00;;;18.60;59.10;;;;;;6108807;23;20161;-86
2023/11/06 02:18:42;;;;;;;4.00;2.90;;;18.60;59.10;;;;;;6131071;23;20159;-87
2023/11/06 02:21:18;;;;;;;3.10;2.80;;;18.60;59.10;;;;;;6105043;23;20151;-86
2023/11/06 02:23:45;;;;;;;3.08;2.78;;;18.50;59.10;;;;;;6080049;23;20203;-85
2023/11/06 02:26:17;;;;;;;3.58;2.80;;;18.60;59.20;;;;;;6100263;23;20160;-86
2023/11/06 02:28:51;;;;;;;2.75;2.50;;;18.50;59.10;;;;;;6029572;23;20156;-85
2023/11/06 02:31:21;;;;;;;3.13;2.60;;;18.60;59.20;;;;;;6076452;23;20156;-87
2023/11/06 02:33:47;;;;;;;3.25;2.60;;;18.50;59.20;;;;;;6028325;23;20527;-86
2023/11/06 02:36:13;;;;;;;3.58;2.63;;;18.50;59.10;;;;;;6105822;23;20185;-86
2023/11/06 02:38:44;;;;;;;3.10;2.80;;;18.60;59.20;;;;;;6105026;23;20151;-86
2023/11/06 02:41:19;;;;;;;2.92;2.60;;;18.50;59.20;;;;;;6071632;23;20188;-87
2023/11/06 02:43:48;;;;;;;2.92;2.72;;;18.50;59.10;;;;;;6095075;23;20152;-86
2023/11/06 02:46:14;;;;;;;2.95;2.72;;;18.50;59.20;;;;;;6095170;23;20180;-85
2023/11/06 02:48:42;;;;;;;3.15;2.85;;;18.50;59.20;;;;;;6071056;23;20164;-87
2023/11/06 02:51:08;;;;;;;4.18;2.90;;;18.50;59.20;;;;;;6071234;23;20543;-86
2023/11/06 02:53:38;;;;;;;2.85;2.60;;;18.50;59.20;;;;;;6073542;23;20309;-87
2023/11/06 02:56:09;;;;;;;3.53;2.65;;;18.50;59.10;;;;;;6076167;23;20215;-86
2023/11/06 02:58:35;;;;;;;3.22;2.92;;;18.50;59.20;;;;;;6100627;23;20132;-88
2023/11/06 03:01:05;;;;;;;2.83;2.50;;;18.50;59.30;;;;;;6099830;23;20167;-87
2023/11/06 03:03:31;;;;;;;3.38;2.97;;;18.50;59.30;;;;;;6051886;23;20496;-87
2023/11/06 03:05:57;;;;;;;3.00;2.70;;;18.50;59.30;;;;;;6100024;23;20151;-87
2023/11/06 03:08:23;;;;;;;3.20;2.90;;;18.50;59.30;;;;;;6100533;23;20156;-86
2023/11/06 03:10:53;;;;;;;3.30;3.00;;;18.50;59.30;;;;;;6099997;23;20168;-88
2023/11/06 03:13:22;;;;;;;3.38;2.90;;;18.50;59.40;;;;;;6133493;23;20253;-85
2023/11/06 03:15:51;;;;;;;3.00;2.70;;;18.50;59.40;;;;;;6134808;23;20146;-86
2023/11/06 03:18:17;;;;;;;3.20;2.70;;;18.50;59.30;;;;;;6094906;23;20168;-88
2023/11/06 03:20:53;;;;;;;3.10;2.80;;;18.50;59.30;;;;;;6047280;23;20152;-88
2023/11/06 03:23:19;;;;;;;2.67;2.47;;;18.50;59.40;;;;;;6001048;23;20639;-87
2023/11/06 03:25:52;;;;;;;3.13;2.83;;;18.50;60.10;;;;;;6047191;23;20152;-86
2023/11/06 03:28:18;;;;;;;3.30;3.00;;;18.50;59.40;;;;;;6023446;23;20153;-86
2023/11/06 03:30:44;;;;;;;2.70;2.50;;;18.40;59.30;;;;;;6070949;23;20141;-85
2023/11/06 03:33:17;;;;;;;3.30;2.75;;;18.50;59.40;;;;;;6047159;23;20243;-86
2023/11/06 03:35:46;;;;;;;2.80;2.60;;;18.50;59.40;;;;;;6023210;23;20152;-86
2023/11/06 03:38:18;;;;;;;2.85;2.50;;;18.50;59.40;;;;;;6047630;23;20172;-85
2023/11/06 03:40:44;;;;;;;3.13;2.83;;;18.50;59.50;;;;;;6001409;23;20156;-85
2023/11/06 03:43:11;;;;;;;3.10;2.80;;;18.40;59.60;;;;;;6094922;23;20179;-86
2023/11/06 03:45:39;;;;;;;3.03;2.72;;;18.40;59.50;;;;;;6047430;23;20153;-86
2023/11/06 03:48:09;;;;;;;2.67;2.45;;;18.50;59.50;;;;;;6049725;23;20156;-86
2023/11/06 03:50:42;;;;;;;2.70;2.50;;;18.50;59.60;;;;;;6110251;23;20593;-86
2023/11/06 03:53:13;;;;;;;2.72;2.53;;;18.50;59.60;;;;;;6136051;23;20634;-85
2023/11/06 03:55:48;;;;;;;2.90;2.60;;;18.40;59.50;;;;;;6086219;23;20233;-86
2023/11/06 03:58:14;;;;;;;3.08;2.50;;;18.40;59.50;;;;;;6110648;23;20177;-86
2023/11/06 04:00:41;;;;;;;2.63;2.42;;;18.40;59.60;;;;;;6135584;23;20583;-86
2023/11/06 04:03:10;;;;;;;2.70;2.50;;;18.40;59.60;;;;;;6159565;23;20135;-87
2023/11/06 04:05:40;;;;;;;3.42;2.80;;;18.40;59.60;;;;;;6135327;23;20230;-86
2023/11/06 04:08:15;;;;;;;2.83;2.60;;;18.40;59.60;;;;;;6085748;23;20190;-87
2023/11/06 04:10:41;;;;;;;2.97;2.60;;;18.40;59.50;;;;;;6061921;23;20525;-86
2023/11/06 04:13:06;;;;;;;3.10;2.80;;;18.50;59.60;;;;;;6185572;23;20240;-85
2023/11/06 04:15:36;;;;;;;3.58;2.72;;;18.40;59.60;;;;;;6134588;23;20587;-86
2023/11/06 04:18:03;;;;;;;3.22;2.50;;;18.40;59.60;;;;;;6159484;23;20736;-85
2023/11/06 04:20:29;;;;;;;3.00;2.75;;;18.40;59.60;;;;;;6166283;23;20194;-85
2023/11/06 04:22:55;;;;;;;3.40;2.72;;;18.50;59.50;;;;;;6167221;23;20548;-85
2023/11/06 04:25:26;;;;;;;2.97;2.67;;;18.50;59.60;;;;;;6142071;23;20202;-86
2023/11/06 04:27:57;;;;;;;2.85;2.60;;;18.40;59.50;;;;;;6092899;23;20210;-86
2023/11/06 04:30:24;;;;;;;2.70;2.50;;;18.50;59.50;;;;;;6096883;23;20241;-84
2023/11/06 04:32:53;;;;;;;2.65;2.45;;;18.50;59.60;;;;;;6168070;23;20142;-85
2023/11/06 04:35:26;;;;;;;3.25;2.67;;;18.50;59.50;;;;;;6095428;23;20174;-86
2023/11/06 04:37:53;;;;;;;2.97;2.70;;;18.50;59.50;;;;;;6096403;23;20202;-88
2023/11/06 04:40:19;;;;;;;2.80;2.60;;;18.40;59.60;;;;;;6145155;23;20159;-86
2023/11/06 04:42:52;;;;;;;3.10;2.60;;;18.50;59.50;;;;;;6168064;23;20562;-86
2023/11/06 04:45:18;;;;;;;2.63;2.42;;;18.50;59.60;;;;;;6094828;23;20147;-86
2023/11/06 04:47:52;;;;;;;3.08;2.78;;;18.40;59.60;;;;;;6168684;23;20586;-85
2023/11/06 04:50:23;;;;;;;2.95;2.65;;;18.40;59.60;;;;;;6144172;23;20207;-84
2023/11/06 04:52:49;;;;;;;2.65;2.45;;;18.50;59.70;;;;;;6094730;23;20147;-87
2023/11/06 04:55:25;;;;;;;3.20;2.88;;;18.40;59.60;;;;;;6168690;23;20147;-85
2023/11/06 04:57:54;;;;;;;3.33;2.80;;;18.40;59.60;;;;;;6097116;23;20150;-87
2023/11/06 05:00:32;;;;;;;2.72;2.50;;;18.40;59.60;;;;;;6143968;23;20151;-86
2023/11/06 05:03:07;;;;;;;2.92;2.63;;;18.40;59.60;;;;;;6079455;23;20152;-85
2023/11/06 05:05:40;;;;;;;2.75;2.55;;;18.40;59.50;;;;;;6079381;23;20167;-85
2023/11/06 05:08:12;;;;;;;2.72;2.53;;;18.50;59.60;;;;;;6055882;23;20152;-84
2023/11/06 05:10:44;;;;;;;2.67;2.47;;;18.50;59.60;;;;;;6079782;23;20160;-86
2023/11/06 05:13:15;;;;;;;2.80;2.60;;;18.50;59.60;;;;;;6079530;23;20258;-86
2023/11/06 05:15:52;;;;;;;3.10;2.80;;;18.40;59.60;;;;;;6079367;23;20208;-86
2023/11/06 05:18:23;;;;;;;2.85;2.65;;;18.40;59.60;;;;;;6082660;23;20152;-88
2023/11/06 05:20:49;;;;;;;2.70;2.50;;;18.40;59.60;;;;;;6079638;23;20152;-87
2023/11/06 05:23:16;;;;;;;3.30;3.00;;;18.40;59.60;;;;;;6080323;23;20152;-86
2023/11/06 05:25:44;;;;;;;2.75;2.55;;;18.40;59.60;;;;;;6055337;23;20605;-83
2023/11/06 05:28:10;;;;;;;3.05;2.75;;;18.40;59.60;;;;;;6078503;23;20232;-85
2023/11/06 05:30:37;;;;;;;2.60;2.40;;;18.40;59.60;;;;;;6079459;23;20141;-88
2023/11/06 05:33:08;;;;;;;2.78;2.58;;;18.40;59.60;;;;;;6086885;23;20188;-89
2023/11/06 05:35:39;;;;;;;2.60;2.40;;;18.40;59.60;;;;;;6094109;23;20173;-87
2023/11/06 05:38:11;;;;;;;3.00;2.70;;;18.40;59.60;;;;;;6117931;23;20190;-86
2023/11/06 05:40:41;;;;;;;5.25;2.80;;;18.40;59.60;;;;;;6093729;23;20155;-85
2023/11/06 05:43:10;;;;;;;2.97;2.78;;;18.40;59.60;;;;;;6059731;23;20160;-85
2023/11/06 05:45:36;;;;;;;2.70;2.50;;;18.40;59.60;;;;;;6109150;23;20152;-87
2023/11/06 05:48:09;;;;;;;2.63;2.40;;;18.40;59.60;;;;;;6074282;23;20161;-86
2023/11/06 05:50:45;;;;;;;3.70;2.60;;;18.40;59.60;;;;;;6027060;23;20158;-86
2023/11/06 05:53:17;;;;;;;2.63;2.42;;;18.50;59.70;;;;;;6026037;23;20264;-86
2023/11/06 05:55:48;;;;;;;3.10;2.80;;;18.40;59.70;;;;;;6050959;23;20158;-88
2023/11/06 05:58:16;;;;;;;3.28;2.78;;;18.30;59.80;;;;;;6051330;23;20153;-87
2023/11/06 06:00:51;;;;;;;3.05;2.70;;;18.40;59.80;;;;;;6021697;23;20158;-85
2023/11/06 06:03:21;;;;;;;3.20;2.70;;;18.40;59.70;;;;;;6023210;23;20168;-87
2023/11/06 06:05:57;;;;;;;2.65;2.45;;;18.40;59.70;;;;;;6022728;23;20178;-87
2023/11/06 06:08:29;;;;;;;2.58;2.38;;;18.40;59.80;;;;;;5999290;23;20183;-86
2023/11/06 06:10:55;;;;;;;2.47;2.28;;;18.40;59.80;;;;;;5974872;23;20162;-85
2023/11/06 06:13:26;;;;;;;2.83;2.63;;;18.30;59.70;;;;;;6021356;23;20257;-86
2023/11/06 06:15:52;;;;;;;2.90;2.67;;;18.40;59.70;;;;;;6022901;23;20162;-85
2023/11/06 06:18:29;;;;;;;3.20;2.90;;;18.40;59.70;;;;;;6027621;23;20150;-89
2023/11/06 06:21:00;;;;;;;2.70;2.47;;;18.40;59.90;;;;;;6086453;23;20148;-87
2023/11/06 06:23:27;;;;;;;2.72;2.53;;;18.40;60.00;;;;;;6060027;23;20183;-85
2023/11/06 06:26:04;;;;;;;3.10;2.80;;;18.30;60.00;;;;;;6059221;23;20156;-86
2023/11/06 06:28:37;;;;;;;2.80;2.60;;;18.40;60.00;;;;;;6062186;23;20166;-87
2023/11/06 06:31:08;;;;;;;2.83;2.40;;;18.40;60.00;;;;;;6060792;23;20167;-85
2023/11/06 06:33:45;;;;;;;2.83;2.63;;;18.40;60.10;;;;;;6082600;23;20183;-86
2023/11/06 06:36:14;;;;;;;2.92;2.72;;;18.30;60.20;;;;;;6078390;23;20557;-85
2023/11/06 06:38:51;;;;;;;2.85;2.58;;;18.30;60.30;;;;;;6022983;23;20157;-86
2023/11/06 06:41:22;;;;;;;2.80;2.60;;;18.30;60.30;;;;;;6024341;23;20220;-86
2023/11/06 06:43:58;;;;;;;2.75;2.55;;;18.30;60.20;;;;;;6024548;23;20481;-87
2023/11/06 06:46:36;;;;;;;2.70;2.50;;;18.30;60.10;;;;;;6070586;23;20163;-85
2023/11/06 06:49:15;;;;;;;3.17;2.88;;;18.30;60.10;;;;;;6110294;23;20445;-85
2023/11/06 06:52:03;;;;;;;2.90;2.70;;;18.30;60.10;;;;;;6051293;23;20617;-85
2023/11/06 06:54:41;;;;;;;2.58;2.30;;;18.40;60.10;;;;;;6046683;23;20219;-89
2023/11/06 06:57:44;;;;;;;2.72;2.45;;;18.40;60.00;;;;;;6001195;23;20154;-88
2023/11/06 07:00:15;;;;;;;2.92;2.72;;;18.40;60.00;;;;;;5998996;23;20158;-85
2023/11/06 07:02:55;;;;;;;2.88;2.40;;;18.50;59.90;;;;;;6021434;23;20154;-88
2023/11/06 07:23:00;;;;;;;2.50;2.30;;;18.60;59.60;;;;;;6135078;23;20210;-86
2023/11/06 07:25:29;;;;;;;2.50;2.30;;;18.60;59.50;;;;;;6103603;23;20162;-86
2023/11/06 07:27:56;;;;;;;2.58;2.38;;;18.70;59.40;;;;;;6130069;23;20147;-89
2023/11/06 07:30:24;;;;;;;2.70;2.50;;;18.60;59.40;;;;;;6082856;23;20183;-89
2023/11/06 07:32:50;;;;;;;2.60;2.40;;;18.60;59.30;;;;;;6085075;23;20197;-89
2023/11/06 07:35:16;;;;;;;2.63;2.42;;;18.60;59.30;;;;;;6109200;23;20219;-88
2023/11/06 07:37:41;;;;;;;2.60;2.40;;;18.70;59.30;;;;;;6133466;23;20191;-88
2023/11/06 07:40:11;;;;;;;3.47;2.63;;;18.60;59.20;;;;;;6110882;23;20178;-87
2023/11/06 07:42:37;;;;;;;2.83;2.53;;;18.70;59.20;;;;;;6138495;23;20153;-85
2023/11/06 07:45:05;;;;;;;2.40;2.20;;;18.70;59.10;;;;;;6165829;23;20155;-86
2023/11/06 07:47:32;;;;;;;2.40;2.20;;;18.80;59.10;;;;;;6105593;23;20153;-86
2023/11/06 07:49:58;;;;;;;2.85;2.50;;;18.80;59.10;;;;;;6056713;23;20188;-87
2023/11/06 07:52:23;;;;;;;2.78;2.08;;;18.80;59.00;;;;;;6081432;23;20153;-87
2023/11/06 07:54:51;;;;;;;2.33;2.08;;;18.80;59.00;;;;;;6081489;23;20236;-85
2023/11/06 10:44:06;;;;;;;;;;;;;;;;;;;;;
2023/11/06 10:46:55;;;;;;;4.82;2.72;;;19.50;59.20;;;;;;6074745;23;20227;-89
2023/11/06 10:49:28;;;;;;;4.25;2.33;;;19.50;59.10;;;;;;6050962;23;20152;-87
2023/11/06 10:51:55;;;;;;;3.25;2.15;;;19.40;59.00;;;;;;6102753;23;20150;-87
2023/11/06 10:54:21;;;;;;;3.22;2.25;;;19.40;59.20;;;;;;6077539;23;20263;-87
2023/11/06 10:56:47;;;;;;;2.72;2.10;;;19.40;59.10;;;;;;6101922;23;20572;-86
2023/11/06 10:59:13;;;;;;;3.85;2.00;;;19.40;59.00;;;;;;6102138;23;20176;-86
2023/11/06 11:01:42;;;;;;;2.53;1.95;;;19.40;59.00;;;;;;6102262;23;20574;-87
2023/11/06 11:04:12;;;;;;;2.47;2.17;;;19.50;59.10;;;;;;6053593;23;20156;-86
2023/11/06 11:06:41;;;;;;;5.32;2.45;;;19.50;59.10;;;;;;6077162;23;20160;-87
2023/11/06 11:09:11;;;;;;;3.30;2.10;;;19.40;59.00;;;;;;6076964;23;20667;-88
2023/11/06 11:11:44;;;;;;;3.38;1.90;;;19.30;58.90;;;;;;6164968;23;20145;-87
2023/11/06 11:14:17;;;;;;;5.80;2.40;;;19.30;59.10;;;;;;6116087;23;20189;-86
2023/11/06 11:17:11;;;;;;;3.17;1.83;;;19.30;59.00;;;;;;6139303;23;20143;-86
2023/11/06 11:20:07;;;;;;;;;;;;;;;;;;;;;
2023/11/06 11:23:10;;;;;;;3.63;2.00;;;19.30;59.10;;;;;;6195736;23;20157;-87
2023/11/06 11:26:19;;;;;;;6.20;2.53;;;19.40;59.20;;;;;;6132529;23;20550;-86
2023/11/06 11:29:09;;;;;;;4.57;2.13;;;19.30;59.00;;;;;;6055958;23;20160;-85
2023/11/06 11:31:47;;;;;;;3.25;2.17;;;19.40;59.00;;;;;;6034432;23;20648;-86
2023/11/06 11:34:26;;;;;;;5.18;2.00;;;19.40;58.90;;;;;;6022397;23;20641;-86
2023/11/06 11:36:53;;;;;;;7.35;2.10;;;19.50;59.00;;;;;;6044066;23;20156;-86
2023/11/06 11:39:37;;;;;;;5.22;2.25;;;19.50;59.00;;;;;;6050690;23;20138;-86
2023/11/06 11:42:25;;;;;;;5.28;2.17;;;19.50;58.80;;;;;;6048051;23;20160;-87
2023/11/06 11:45:20;;;;;;;5.35;2.17;;;19.50;58.80;;;;;;5993537;24;20175;-87
2023/11/06 11:47:55;;;;;;;2.92;2.30;;;19.50;58.70;;;;;;5968783;24;20445;-87
2023/11/06 11:50:39;;;;;;;2.72;1.90;;;19.40;58.80;;;;;;5965367;24;20170;-87
2023/11/06 11:53:29;;;;;;;4.20;1.88;;;19.40;58.80;;;;;;5960655;24;20270;-87
2023/11/06 11:56:03;;;;;;;4.95;2.10;;;19.50;58.80;;;;;;5961923;24;20155;-86
2023/11/06 11:58:29;;;;;;;3.33;2.22;;;19.50;58.70;;;;;;5957109;23;20157;-86
2023/11/06 12:01:02;;;;;;;6.15;2.10;;;19.50;58.60;;;;;;6069201;23;20513;-86
2023/11/06 12:03:30;;;;;;;5.82;2.78;;;19.60;58.60;;;;;;6044827;23;20157;-86
2023/11/06 12:06:05;;;;;;;5.88;2.03;;;19.50;58.30;;;;;;6075705;23;20633;-88
2023/11/06 12:08:55;;;;;;;2.30;2.10;;;19.60;58.40;;;;;;6071015;23;20183;-87
2023/11/06 12:11:29;;;;;;;2.03;1.73;;;19.50;58.30;;;;;;6068898;23;20543;-87
2023/11/06 12:14:03;;;;;;;2.97;2.00;;;19.60;58.30;;;;;;6077530;23;20212;-87
2023/11/06 12:16:29;;;;;;;3.00;1.98;;;19.60;58.30;;;;;;6075879;23;20155;-86
2023/11/06 12:18:58;;;;;;;2.35;2.15;;;19.50;58.20;;;;;;6162412;23;20438;-87
2023/11/06 12:21:24;;;;;;;2.20;2.00;;;19.60;58.10;;;;;;6162291;23;20558;-87
2023/11/06 12:23:50;;;;;;;5.57;2.40;;;19.50;58.10;;;;;;6138226;23;20179;-87
2023/11/06 12:26:17;;;;;;;2.58;2.05;;;19.50;58.20;;;;;;6161965;23;20135;-87
2023/11/06 12:28:45;;;;;;;3.40;1.88;;;19.40;58.00;;;;;;6188188;23;20149;-87
2023/11/06 12:31:11;;;;;;;3.65;1.80;;;19.50;58.10;;;;;;6162245;23;20241;-87
2023/11/06 12:33:44;;;;;;;2.20;1.95;;;19.40;58.50;;;;;;6161994;23;20171;-87
2023/11/06 12:36:34;;;;;;;2.40;2.20;;;19.50;58.10;;;;;;6080218;23;20231;-86
2023/11/06 12:39:00;;;;;;;3.17;2.00;;;19.50;58.20;;;;;;6107241;23;20162;-86
2023/11/06 12:41:33;;;;;;;2.95;2.10;;;19.50;58.20;;;;;;6107053;23;20149;-87
2023/11/06 12:44:15;;;;;;;2.00;1.80;;;19.50;58.30;;;;;;6081179;23;20203;-87
2023/11/06 12:46:45;;;;;;;3.08;2.10;;;19.50;58.20;;;;;;6110373;23;20159;-86
2023/11/06 12:49:10;;;;;;;2.90;2.10;;;19.50;58.20;;;;;;6104087;23;20155;-86
2023/11/06 12:51:37;;;;;;;3.42;1.75;;;19.50;58.20;;;;;;6104392;23;20223;-86
2023/11/06 12:54:03;;;;;;;2.58;1.67;;;19.40;58.10;;;;;;6105389;23;20262;-86
2023/11/06 12:56:29;;;;;;;2.38;1.98;;;19.40;58.10;;;;;;6103100;23;20189;-86
2023/11/06 12:59:00;;;;;;;3.40;2.10;;;19.50;58.10;;;;;;6103026;23;20148;-86
2023/11/06 13:01:29;;;;;;;3.13;2.15;;;19.50;58.00;;;;;;6055313;23;20153;-86
2023/11/06 13:03:55;;;;;;;2.08;1.90;;;19.40;58.10;;;;;;6103519;23;20184;-86
2023/11/06 13:06:20;;;;;;;2.35;1.77;;;19.40;58.10;;;;;;6103525;23;20588;-87
2023/11/06 13:08:46;;;;;;;3.08;2.10;;;19.50;58.00;;;;;;6079305;23;20167;-86
2023/11/06 13:11:12;;;;;;;2.60;1.98;;;19.50;58.00;;;;;;6102403;23;20236;-86
2023/11/06 13:13:39;;;;;;;3.38;2.20;;;19.50;58.00;;;;;;6101219;23;20164;-85
2023/11/06 13:16:06;;;;;;;2.00;1.90;;;19.50;58.00;;;;;;6102759;23;20148;-87
2023/11/06 13:18:34;;;;;;;2.28;2.08;;;19.50;58.00;;;;;;6103493;23;20152;-86
2023/11/06 13:23:41;;;;;;;2.30;1.88;;;19.50;57.90;;;;;;6114293;23;20239;-86
2023/11/06 13:26:08;;;;;;;2.42;2.17;;;19.50;57.80;;;;;;6080422;23;20216;-87
2023/11/06 13:28:34;;;;;;;2.10;1.90;;;19.50;57.70;;;;;;6134315;23;20522;-86
2023/11/06 13:31:00;;;;;;;2.17;1.90;;;19.50;57.70;;;;;;6134936;23;20140;-85
2023/11/06 13:33:29;;;;;;;2.00;1.80;;;19.50;57.70;;;;;;6159938;23;20179;-85
2023/11/06 13:35:55;;;;;;;2.40;1.70;;;19.50;57.70;;;;;;6086847;23;20151;-85
2023/11/06 13:38:21;;;;;;;2.03;1.83;;;19.50;57.80;;;;;;6109261;23;20225;-86
2023/11/06 13:40:49;;;;;;;2.20;1.90;;;19.50;57.70;;;;;;6134642;23;20139;-85
2023/11/06 13:43:18;;;;;;;2.80;1.70;;;19.50;57.70;;;;;;6099287;23;20191;-86
2023/11/06 13:45:45;;;;;;;1.58;1.48;;;19.60;57.60;;;;;;6142522;23;20181;-86
2023/11/06 13:48:11;;;;;;;2.13;1.90;;;19.50;57.60;;;;;;6166677;23;20514;-86
2023/11/06 13:50:46;;;;;;;2.00;1.80;;;19.60;57.60;;;;;;6139756;23;20517;-86
2023/11/06 13:53:24;;;;;;;2.05;1.88;;;19.50;57.60;;;;;;6165153;23;20130;-87
2023/11/06 13:55:58;;;;;;;2.78;2.13;;;19.50;57.60;;;;;;6119121;23;20598;-87
2023/11/06 13:58:28;;;;;;;2.90;1.98;;;19.50;57.60;;;;;;6137941;23;20147;-87
2023/11/06 14:01:07;;;;;;;1.65;1.55;;;19.60;57.60;;;;;;6137325;23;20155;-86
2023/11/06 14:03:34;;;;;;;2.35;2.15;;;19.50;57.50;;;;;;6118225;23;20147;-87
2023/11/06 14:06:01;;;;;;;3.00;2.13;;;19.60;57.60;;;;;;6110878;23;20640;-87
2023/11/06 14:08:29;;;;;;;1.80;1.55;;;19.60;57.50;;;;;;6110715;23;20174;-87
2023/11/06 14:11:00;;;;;;;1.60;1.50;;;19.60;57.40;;;;;;6136108;23;20142;-87
2023/11/06 14:13:29;;;;;;;1.77;1.67;;;19.60;57.30;;;;;;6087519;23;20185;-87
2023/11/06 14:15:57;;;;;;;1.98;1.80;;;19.70;57.20;;;;;;6132902;23;20154;-86
2023/11/06 14:18:24;;;;;;;2.10;1.80;;;19.60;57.30;;;;;;6110869;23;20155;-87
2023/11/06 14:20:52;;;;;;;1.60;1.50;;;19.50;57.30;;;;;;6160779;23;20214;-87
2023/11/06 14:23:25;;;;;;;2.15;1.95;;;19.60;57.30;;;;;;6136406;23;20131;-87
2023/11/06 14:25:55;;;;;;;1.83;1.73;;;19.60;57.30;;;;;;6110831;23;20151;-87
2023/11/06 14:28:21;;;;;;;3.05;1.77;;;19.60;57.20;;;;;;6111469;23;20155;-87
2023/11/06 14:30:49;;;;;;;2.47;1.75;;;19.60;57.20;;;;;;6135951;23;20170;-86
2023/11/06 14:33:17;;;;;;;1.65;1.52;;;19.60;57.30;;;;;;6137170;23;20137;-87
2023/11/06 14:35:43;;;;;;;3.55;1.70;;;19.60;57.30;;;;;;6160747;23;20506;-86
2023/11/06 14:38:11;;;;;;;1.40;1.30;;;19.60;57.10;;;;;;6136813;23;20169;-88
2023/11/06 14:40:42;;;;;;;2.25;1.50;;;19.60;57.10;;;;;;6136197;23;20146;-87
2023/11/06 14:43:12;;;;;;;1.60;1.50;;;19.60;57.00;;;;;;6161011;23;20244;-85
2023/11/06 14:45:39;;;;;;;1.63;1.52;;;19.60;56.90;;;;;;6161342;23;20124;-86
2023/11/06 14:48:06;;;;;;;1.88;1.70;;;19.60;56.80;;;;;;6160332;23;20189;-86
2023/11/06 14:50:32;;;;;;;1.70;1.60;;;19.70;56.90;;;;;;6161342;23;20135;-87
2023/11/06 14:52:59;;;;;;;1.55;1.45;;;19.60;56.90;;;;;;6135981;23;20463;-86
2023/11/06 14:55:25;;;;;;;1.63;1.50;;;19.70;56.90;;;;;;6135963;23;20282;-86
2023/11/06 14:57:50;;;;;;;1.50;1.40;;;19.60;56.90;;;;;;6136398;23;20237;-85
2023/11/06 15:00:16;;;;;;;1.80;1.58;;;19.60;56.90;;;;;;6135521;23;20217;-86
2023/11/06 15:02:44;;;;;;;1.38;1.27;;;19.60;56.90;;;;;;6135643;23;20131;-86
2023/11/06 15:05:14;;;;;;;1.48;1.33;;;19.70;56.90;;;;;;6107796;23;20150;-87
2023/11/06 15:07:44;;;;;;;1.70;1.50;;;19.60;56.80;;;;;;6088280;23;20539;-86
2023/11/06 15:10:12;;;;;;;1.80;1.70;;;19.60;56.80;;;;;;6090631;23;20151;-85
2023/11/06 15:12:40;;;;;;;1.83;1.45;;;19.60;56.70;;;;;;6068020;23;20491;-85
2023/11/06 15:15:16;;;;;;;1.73;1.55;;;19.60;56.60;;;;;;6116957;23;20205;-86
2023/11/06 15:18:03;;;;;;;1.60;1.23;;;19.60;56.80;;;;;;6145038;23;20204;-86
2023/11/06 15:20:30;;;;;;;2.20;1.52;;;19.60;56.60;;;;;;6103005;23;20151;-86
2023/11/06 15:22:58;;;;;;;1.67;1.58;;;19.60;56.60;;;;;;6117845;23;20158;-86
2023/11/06 15:25:37;;;;;;;2.30;1.25;;;19.50;56.50;;;;;;6116801;23;20155;-86
2023/11/06 15:28:05;;;;;;;1.60;1.48;;;19.60;56.50;;;;;;6114377;23;20146;-86
2023/11/06 15:30:32;;;;;;;1.50;1.40;;;19.60;56.50;;;;;;6138769;23;20229;-85
2023/11/06 15:32:59;;;;;;;1.40;1.30;;;19.60;56.40;;;;;;6114850;23;20161;-86
2023/11/06 15:35:26;;;;;;;1.27;1.17;;;19.70;56.40;;;;;;6114332;23;20202;-85
2023/11/06 15:37:53;;;;;;;1.50;1.40;;;19.70;56.40;;;;;;6112411;23;20154;-86
2023/11/06 15:40:20;;;;;;;1.52;1.42;;;19.70;56.20;;;;;;6088374;23;20159;-87
2023/11/06 15:42:45;;;;;;;1.45;1.33;;;19.70;56.30;;;;;;6111939;23;20269;-87
2023/11/06 15:45:13;;;;;;;1.83;1.42;;;19.70;56.30;;;;;;6160904;23;20534;-86
2023/11/06 15:47:39;;;;;;;1.80;1.60;;;19.60;56.30;;;;;;6161410;23;20143;-86
2023/11/06 15:50:06;;;;;;;1.60;1.50;;;19.60;56.50;;;;;;6137389;23;20159;-86
2023/11/06 15:52:33;;;;;;;1.63;1.52;;;19.70;56.50;;;;;;6163488;23;20128;-87
2023/11/06 15:54:59;;;;;;;1.65;1.55;;;19.70;56.30;;;;;;6162441;23;20236;-87
2023/11/06 15:57:31;;;;;;;1.60;1.50;;;19.60;56.20;;;;;;6162848;23;20143;-87
2023/11/06 15:59:58;;;;;;;2.33;1.30;;;19.70;56.20;;;;;;6163003;23;20159;-86
2023/11/06 16:02:24;;;;;;;1.70;1.40;;;19.70;56.10;;;;;;6138454;23;20157;-86
2023/11/06 16:04:50;;;;;;;1.40;1.30;;;19.70;56.10;;;;;;6163427;23;20621;-86
2023/11/06 16:07:23;;;;;;;1.60;1.50;;;19.70;56.10;;;;;;6164111;23;20147;-87
2023/11/06 16:09:57;;;;;;;1.60;1.50;;;19.70;56.20;;;;;;6163954;23;20131;-86
2023/11/06 16:12:23;;;;;;;1.50;1.40;;;19.60;56.20;;;;;;6117129;23;20174;-84